createdAt,value
2023-04-26T00:01:43.820Z,81.86
2023-04-26T00:04:08.313Z,81.91
2023-04-26T00:06:32.154Z,81.90
2023-04-26T00:08:57.615Z,82.10
2023-04-26T00:11:21.348Z,82.12
2023-04-26T00:13:44.793Z,82.11
2023-04-26T00:16:13.121Z,81.91
2023-04-26T00:18:37.289Z,81.75
2023-04-26T00:21:01.028Z,81.93
2023-04-26T00:23:24.846Z,82.62
2023-04-26T00:25:48.473Z,82.51
2023-04-26T00:28:11.924Z,82.83
2023-04-26T00:30:40.622Z,83.09
2023-04-26T00:33:04.314Z,82.93
2023-04-26T00:35:27.972Z,83.06
2023-04-26T00:37:51.794Z,82.91
2023-04-26T00:40:16.612Z,82.88
2023-04-26T00:42:40.596Z,83.04
2023-04-26T00:45:05.762Z,83.03
2023-04-26T00:47:30.713Z,83.15
2023-04-26T00:49:55.288Z,83.01
2023-04-26T00:52:19.054Z,83.14
2023-04-26T00:54:43.518Z,83.11
2023-04-26T00:57:09.268Z,83.34
2023-04-26T00:59:34.319Z,83.17
2023-04-26T01:01:57.904Z,83.30
2023-04-26T01:04:25.829Z,83.25
2023-04-26T01:06:49.931Z,83.33
2023-04-26T01:09:14.724Z,83.34
2023-04-26T01:11:42.199Z,83.28
2023-04-26T01:14:08.587Z,83.21
2023-04-26T01:16:34.957Z,83.36
2023-04-26T01:18:58.875Z,83.33
2023-04-26T01:21:24.355Z,83.34
2023-04-26T01:23:48.145Z,83.35
2023-04-26T01:26:19.393Z,83.29
2023-04-26T01:28:43.985Z,83.35
2023-04-26T01:31:08.026Z,83.19
2023-04-26T01:33:31.461Z,83.04
2023-04-26T01:35:54.934Z,83.16
2023-04-26T01:38:20.188Z,83.10
2023-04-26T01:40:45.476Z,82.80
2023-04-26T01:43:08.905Z,82.77
2023-04-26T01:45:32.528Z,82.57
2023-04-26T01:48:14.731Z,82.53
2023-04-26T01:50:51.508Z,82.65
2023-04-26T01:53:15.108Z,82.57
2023-04-26T01:55:48.928Z,82.71
2023-04-26T01:58:21.868Z,82.68
2023-04-26T02:00:45.942Z,82.67
2023-04-26T02:03:22.701Z,82.60
2023-04-26T02:06:07.247Z,82.46
2023-04-26T02:08:52.057Z,82.46
2023-04-26T02:11:36.084Z,82.59
2023-04-26T02:14:05.821Z,82.64
2023-04-26T02:16:40.147Z,82.66
2023-04-26T02:19:24.097Z,82.63
2023-04-26T02:21:57.378Z,82.57
2023-04-26T02:24:25.356Z,82.55
2023-04-26T02:26:51.774Z,82.68
2023-04-26T02:29:15.634Z,82.58
2023-04-26T02:31:39.716Z,82.64
2023-04-26T02:34:12.960Z,82.62
2023-04-26T02:36:36.676Z,82.45
2023-04-26T02:39:00.753Z,82.45
2023-04-26T02:41:25.561Z,82.46
2023-04-26T02:43:49.119Z,82.59
2023-04-26T02:46:15.526Z,82.47
2023-04-26T02:48:40.341Z,82.49
2023-04-26T02:51:04.400Z,82.54
2023-04-26T02:53:28.020Z,82.44
2023-04-26T02:55:51.910Z,82.22
2023-04-26T02:58:15.370Z,82.03
2023-04-26T03:00:39.467Z,81.85
2023-04-26T03:03:05.670Z,82.12
2023-04-26T03:05:29.339Z,81.99
2023-04-26T03:07:53.172Z,81.73
2023-04-26T03:10:16.934Z,81.48
2023-04-26T03:12:40.975Z,81.11
2023-04-26T03:15:06.261Z,80.94
2023-04-26T03:17:30.024Z,80.36
2023-04-26T03:19:53.826Z,80.17
2023-04-26T03:22:17.859Z,79.80
2023-04-26T03:24:41.927Z,79.37
2023-04-26T03:27:05.593Z,78.98
2023-04-26T03:29:30.742Z,78.92
2023-04-26T03:31:54.410Z,79.05
2023-04-26T03:34:18.236Z,79.02
2023-04-26T03:36:42.223Z,78.76
2023-04-26T03:39:05.767Z,78.87
2023-04-26T03:41:29.451Z,79.09
2023-04-26T03:43:56.091Z,79.27
2023-04-26T03:46:20.314Z,79.47
2023-04-26T03:48:44.753Z,79.54
2023-04-26T03:51:08.420Z,79.40
2023-04-26T03:53:31.991Z,79.31
2023-04-26T03:55:56.230Z,79.30
2023-04-26T03:58:19.940Z,79.30
2023-04-26T04:00:43.410Z,78.96
2023-04-26T04:03:08.196Z,78.78
2023-04-26T04:05:32.214Z,78.67
2023-04-26T04:07:57.142Z,78.56
2023-04-26T04:10:23.938Z,78.40
2023-04-26T04:12:47.848Z,78.36
2023-04-26T04:15:12.089Z,78.48
2023-04-26T04:17:40.881Z,78.58
2023-04-26T04:20:07.135Z,78.59
2023-04-26T04:22:30.750Z,78.48
2023-04-26T04:24:54.786Z,78.30
2023-04-26T04:27:20.593Z,78.31
2023-04-26T04:29:44.137Z,78.34
2023-04-26T04:32:09.472Z,78.27
2023-04-26T04:34:36.785Z,77.93
2023-04-26T04:37:02.078Z,77.91
2023-04-26T04:39:33.433Z,77.70
2023-04-26T04:41:57.956Z,76.49
2023-04-26T04:44:26.515Z,75.26
2023-04-26T04:46:51.998Z,73.24
2023-04-26T04:49:18.137Z,70.99
2023-04-26T04:51:41.805Z,69.36
2023-04-26T04:54:11.728Z,66.26
2023-04-26T04:56:35.493Z,65.40
2023-04-26T04:58:59.167Z,63.29
2023-04-26T05:01:23.214Z,61.05
2023-04-26T05:03:50.989Z,58.87
2023-04-26T05:06:15.389Z,56.20
2023-04-26T05:08:39.014Z,55.13
2023-04-26T05:11:04.501Z,54.32
2023-04-26T05:13:28.136Z,53.79
2023-04-26T05:15:51.503Z,52.31
2023-04-26T05:18:15.579Z,52.26
2023-04-26T05:20:39.450Z,51.81
2023-04-26T05:23:03.281Z,52.04
2023-04-26T05:25:26.832Z,52.36
2023-04-26T05:28:01.401Z,52.93
2023-04-26T05:30:45.765Z,53.67
2023-04-26T05:33:17.980Z,51.97
2023-04-26T05:35:46.273Z,49.51
2023-04-26T05:38:09.618Z,48.29
2023-04-26T05:40:33.104Z,46.47
2023-04-26T05:42:57.217Z,44.57
2023-04-26T05:45:20.872Z,41.67
2023-04-26T05:47:46.903Z,40.33
2023-04-26T05:50:11.858Z,38.27
2023-04-26T05:52:35.456Z,37.94
2023-04-26T05:54:59.257Z,36.88
2023-04-26T05:57:22.684Z,36.27
2023-04-26T05:59:46.583Z,35.17
2023-04-26T06:02:10.938Z,34.85
2023-04-26T06:04:35.707Z,33.40
2023-04-26T06:07:06.601Z,32.13
2023-04-26T06:09:32.651Z,31.66
2023-04-26T06:11:55.374Z,31.24
2023-04-26T06:14:29.437Z,30.64
2023-04-26T06:16:56.799Z,29.42
2023-04-26T06:19:20.337Z,28.82
2023-04-26T06:21:44.397Z,28.13
2023-04-26T06:24:08.702Z,27.19
2023-04-26T06:26:33.638Z,26.63
2023-04-26T06:28:57.024Z,26.51
2023-04-26T06:31:22.159Z,26.87
2023-04-26T06:33:46.056Z,26.58
2023-04-26T06:36:12.893Z,26.52
2023-04-26T06:38:37.800Z,25.87
2023-04-26T06:41:01.329Z,24.72
2023-04-26T06:43:24.805Z,24.35
2023-04-26T06:45:57.452Z,23.40
2023-04-26T06:48:20.938Z,22.73
2023-04-26T06:50:44.388Z,22.65
2023-04-26T06:53:08.416Z,22.35
2023-04-26T06:55:33.586Z,22.43
2023-04-26T06:57:57.639Z,22.08
2023-04-26T07:00:22.715Z,21.05
2023-04-26T07:02:46.278Z,20.89
2023-04-26T07:05:10.538Z,20.93
2023-04-26T07:07:34.473Z,21.33
2023-04-26T07:09:57.896Z,21.02
2023-04-26T07:12:21.232Z,20.99
2023-04-26T07:14:45.294Z,20.79
2023-04-26T07:17:08.651Z,21.26
2023-04-26T07:19:32.094Z,20.95
2023-04-26T07:21:55.654Z,21.24
2023-04-26T07:24:19.009Z,21.05
2023-04-26T07:26:42.422Z,21.45
2023-04-26T07:29:06.293Z,22.25
2023-04-26T07:31:31.434Z,23.19
2023-04-26T07:33:55.239Z,24.09
2023-04-26T07:36:19.306Z,24.67
2023-04-26T07:38:42.731Z,25.05
2023-04-26T07:41:06.519Z,25.19
2023-04-26T07:43:31.075Z,25.28
2023-04-26T07:45:54.527Z,25.08
2023-04-26T07:48:18.200Z,25.18
2023-04-26T07:50:41.607Z,25.38
2023-04-26T07:53:05.559Z,25.26
2023-04-26T07:55:29.368Z,25.39
2023-04-26T07:57:52.870Z,24.84
2023-04-26T08:00:18.613Z,24.22
2023-04-26T08:02:50.433Z,23.82
2023-04-26T08:05:14.803Z,24.12
2023-04-26T08:07:38.999Z,24.57
2023-04-26T08:10:02.433Z,24.92
2023-04-26T08:12:26.038Z,25.50
2023-04-26T08:14:50.050Z,25.90
2023-04-26T08:17:13.700Z,26.92
2023-04-26T08:19:37.537Z,28.19
2023-04-26T08:22:01.043Z,29.34
2023-04-26T08:24:24.538Z,30.37
2023-04-26T08:26:47.991Z,30.48
2023-04-26T08:29:11.601Z,30.12
2023-04-26T08:31:35.673Z,30.68
2023-04-26T08:33:59.209Z,31.00
2023-04-26T08:36:22.847Z,30.25
2023-04-26T08:38:46.364Z,30.53
2023-04-26T08:41:13.046Z,31.01
2023-04-26T08:43:38.370Z,31.81
2023-04-26T08:46:02.881Z,32.66
2023-04-26T08:48:31.318Z,33.72
2023-04-26T08:50:55.488Z,34.20
2023-04-26T08:53:18.922Z,34.49
2023-04-26T08:55:42.745Z,34.21
2023-04-26T08:58:07.287Z,34.17
2023-04-26T09:00:31.384Z,34.41
2023-04-26T09:02:54.997Z,34.90
2023-04-26T09:05:23.314Z,35.80
2023-04-26T09:07:48.231Z,36.24
2023-04-26T09:10:13.844Z,36.65
2023-04-26T09:12:38.009Z,36.83
2023-04-26T09:15:06.974Z,37.07
2023-04-26T09:17:33.780Z,37.57
2023-04-26T09:20:21.071Z,38.01
2023-04-26T09:22:45.096Z,38.41
2023-04-26T09:25:12.995Z,38.75
2023-04-26T09:27:38.709Z,38.95
2023-04-26T09:30:05.530Z,39.24
2023-04-26T09:32:45.418Z,39.56
2023-04-26T09:35:17.943Z,39.80
2023-04-26T09:37:59.233Z,39.16
2023-04-26T09:40:25.795Z,38.81
2023-04-26T09:42:57.896Z,38.69
2023-04-26T09:45:21.739Z,38.69
2023-04-26T09:47:45.947Z,39.01
2023-04-26T09:50:10.347Z,38.66
2023-04-26T09:52:43.696Z,38.73
2023-04-26T09:55:14.383Z,38.60
2023-04-26T09:57:43.995Z,38.70
2023-04-26T10:00:12.244Z,39.08
2023-04-26T10:02:36.186Z,39.11
2023-04-26T10:05:01.613Z,39.26
2023-04-26T10:07:26.525Z,38.32
2023-04-26T10:09:50.992Z,37.34
2023-04-26T10:12:16.089Z,36.96
2023-04-26T10:14:41.198Z,36.68
2023-04-26T10:17:05.787Z,37.04
2023-04-26T10:19:30.573Z,37.18
2023-04-26T10:21:56.804Z,37.42
2023-04-26T10:24:22.622Z,37.80
2023-04-26T10:26:51.305Z,38.16
2023-04-26T10:29:17.999Z,37.87
2023-04-26T10:32:07.952Z,37.82
2023-04-26T10:34:33.101Z,37.64
2023-04-26T10:37:11.093Z,37.47
2023-04-26T10:39:36.272Z,37.49
2023-04-26T10:42:24.277Z,37.75
2023-04-26T10:44:51.746Z,38.09
2023-04-26T10:47:36.603Z,38.16
2023-04-26T10:50:09.119Z,38.11
2023-04-26T10:53:05.728Z,37.65
2023-04-26T10:55:46.704Z,37.95
2023-04-26T10:58:27.841Z,37.88
2023-04-26T11:01:05.661Z,37.16
2023-04-26T11:03:31.366Z,37.29
2023-04-26T11:05:57.622Z,37.24
2023-04-26T11:08:25.084Z,37.22
2023-04-26T11:10:57.148Z,37.57
2023-04-26T11:13:20.877Z,37.70
2023-04-26T11:15:59.866Z,37.79
2023-04-26T11:18:24.029Z,37.37
2023-04-26T11:20:47.778Z,37.26
2023-04-26T11:23:13.924Z,37.18
2023-04-26T11:25:39.664Z,37.18
2023-04-26T11:28:06.300Z,37.55
2023-04-26T11:30:31.547Z,37.70
2023-04-26T11:32:55.066Z,37.70
2023-04-26T11:35:21.179Z,37.64
2023-04-26T11:37:46.544Z,37.53
2023-04-26T11:40:12.324Z,37.85
2023-04-26T11:42:35.668Z,37.89
2023-04-26T11:45:01.185Z,37.62
2023-04-26T11:47:25.781Z,37.31
2023-04-26T11:49:49.565Z,37.26
2023-04-26T11:52:14.024Z,36.96
2023-04-26T11:54:38.055Z,36.90
2023-04-26T11:57:13.405Z,36.62
2023-04-26T11:59:38.246Z,36.47
2023-04-26T12:02:06.893Z,36.29
2023-04-26T12:04:30.919Z,36.56
2023-04-26T12:06:55.180Z,37.02
2023-04-26T12:09:24.131Z,37.20
2023-04-26T12:11:53.271Z,36.89
2023-04-26T12:14:17.506Z,36.67
2023-04-26T12:16:43.095Z,36.30
2023-04-26T12:19:07.784Z,35.93
2023-04-26T12:21:41.509Z,35.95
2023-04-26T12:24:06.182Z,36.07
2023-04-26T12:26:44.385Z,36.09
2023-04-26T12:29:08.790Z,35.74
2023-04-26T12:31:32.259Z,35.76
2023-04-26T12:33:56.105Z,36.20
2023-04-26T12:36:20.610Z,36.30
2023-04-26T12:38:44.343Z,36.35
2023-04-26T12:41:08.114Z,36.61
2023-04-26T12:43:31.784Z,37.01
2023-04-26T12:45:55.645Z,37.31
2023-04-26T12:48:19.769Z,36.82
2023-04-26T12:50:45.159Z,36.11
2023-04-26T12:53:20.058Z,35.75
2023-04-26T12:55:47.081Z,35.87
2023-04-26T12:58:10.836Z,36.12
2023-04-26T13:00:35.491Z,36.33
2023-04-26T13:02:59.150Z,36.32
2023-04-26T13:05:24.021Z,36.38
2023-04-26T13:07:47.931Z,36.62
2023-04-26T13:10:13.155Z,36.96
2023-04-26T13:12:37.075Z,37.34
2023-04-26T13:15:00.881Z,37.64
2023-04-26T13:17:25.987Z,37.58
2023-04-26T13:19:49.345Z,37.53
2023-04-26T13:22:13.175Z,37.19
2023-04-26T13:24:36.883Z,37.18
2023-04-26T13:27:00.551Z,37.33
2023-04-26T13:29:31.759Z,37.22
2023-04-26T13:31:55.659Z,37.31
2023-04-26T13:34:19.245Z,37.28
2023-04-26T13:36:42.859Z,37.38
2023-04-26T13:39:06.748Z,37.29
2023-04-26T13:41:34.318Z,37.24
2023-04-26T13:43:58.210Z,36.87
2023-04-26T13:46:21.836Z,36.73
2023-04-26T13:48:45.369Z,36.87
2023-04-26T13:51:08.815Z,37.14
2023-04-26T13:53:32.680Z,37.19
2023-04-26T13:55:56.573Z,37.11
2023-04-26T13:58:20.232Z,36.89
2023-04-26T14:00:44.215Z,36.76
2023-04-26T14:03:07.895Z,36.88
2023-04-26T14:05:35.014Z,37.14
2023-04-26T14:08:00.316Z,37.28
2023-04-26T14:10:23.674Z,37.08
2023-04-26T14:12:50.476Z,37.04
2023-04-26T14:15:14.581Z,37.18
2023-04-26T14:17:38.176Z,37.34
2023-04-26T14:20:01.753Z,37.34
2023-04-26T14:22:26.514Z,37.21
2023-04-26T14:24:50.120Z,37.31
2023-04-26T14:27:13.800Z,37.95
2023-04-26T14:29:37.296Z,38.29
2023-04-26T14:32:01.023Z,38.53
2023-04-26T14:34:25.788Z,38.69
2023-04-26T14:36:49.352Z,39.01
2023-04-26T14:39:12.804Z,39.04
2023-04-26T14:41:36.749Z,38.96
2023-04-26T14:44:00.213Z,39.19
2023-04-26T14:46:23.797Z,39.14
2023-04-26T14:48:47.223Z,39.37
2023-04-26T14:51:11.428Z,39.47
2023-04-26T14:53:35.314Z,39.61
2023-04-26T14:56:00.047Z,39.79
2023-04-26T14:58:24.029Z,40.05
2023-04-26T15:00:47.994Z,40.29
2023-04-26T15:03:11.653Z,40.38
2023-04-26T15:05:35.771Z,40.31
2023-04-26T15:07:59.314Z,40.28
2023-04-26T15:10:22.980Z,40.45
2023-04-26T15:12:46.690Z,40.54
2023-04-26T15:15:30.648Z,40.47
2023-04-26T15:17:54.141Z,40.80
2023-04-26T15:20:17.974Z,40.88
2023-04-26T15:22:41.680Z,40.93
2023-04-26T15:25:06.935Z,41.13
2023-04-26T15:27:30.531Z,41.12
2023-04-26T15:29:55.916Z,41.12
2023-04-26T15:32:19.350Z,41.19
2023-04-26T15:34:44.354Z,41.17
2023-04-26T15:37:07.865Z,40.99
2023-04-26T15:39:31.414Z,41.20
2023-04-26T15:41:54.936Z,41.26
2023-04-26T15:44:21.892Z,41.38
2023-04-26T15:46:48.502Z,41.40
2023-04-26T15:49:14.948Z,41.31
2023-04-26T15:51:41.792Z,41.35
2023-04-26T15:54:06.012Z,41.45
2023-04-26T15:56:29.641Z,41.51
2023-04-26T15:58:53.415Z,41.32
2023-04-26T16:01:18.193Z,41.52
2023-04-26T16:03:53.025Z,41.50
2023-04-26T16:06:16.676Z,41.63
2023-04-26T16:08:41.063Z,41.59
2023-04-26T16:11:05.334Z,41.87
2023-04-26T16:13:29.762Z,41.99
2023-04-26T16:15:53.345Z,42.23
2023-04-26T16:18:17.220Z,42.47
2023-04-26T16:20:40.670Z,42.45
2023-04-26T16:23:04.141Z,42.40
2023-04-26T16:25:27.693Z,42.48
2023-04-26T16:27:51.161Z,42.41
2023-04-26T16:30:15.369Z,42.61
2023-04-26T16:32:39.155Z,42.70
2023-04-26T16:35:02.702Z,42.57
2023-04-26T16:37:26.480Z,42.69
2023-04-26T16:39:53.698Z,42.82
2023-04-26T16:42:17.051Z,42.84
2023-04-26T16:44:40.813Z,43.24
2023-04-26T16:47:05.142Z,43.33
2023-04-26T16:49:29.043Z,43.30
2023-04-26T16:51:58.040Z,43.22
2023-04-26T16:54:21.781Z,43.19
2023-04-26T16:56:45.700Z,43.21
2023-04-26T16:59:09.268Z,43.36
2023-04-26T17:01:33.203Z,43.55
2023-04-26T17:03:56.855Z,43.66
2023-04-26T17:06:23.986Z,43.77
2023-04-26T17:08:47.766Z,43.88
2023-04-26T17:11:15.158Z,44.12
2023-04-26T17:13:42.063Z,44.06
2023-04-26T17:16:07.353Z,43.91
2023-04-26T17:18:31.028Z,44.02
2023-04-26T17:20:55.720Z,44.03
2023-04-26T17:23:20.277Z,44.16
2023-04-26T17:25:43.995Z,44.18
2023-04-26T17:28:07.370Z,44.48
2023-04-26T17:30:31.020Z,44.56
2023-04-26T17:32:55.388Z,44.61
2023-04-26T17:35:19.010Z,44.75
2023-04-26T17:37:43.434Z,44.76
2023-04-26T17:40:09.363Z,44.83
2023-04-26T17:42:35.663Z,44.78
2023-04-26T17:45:01.736Z,44.76
2023-04-26T17:47:36.373Z,45.02
2023-04-26T17:50:21.243Z,45.05
2023-04-26T17:52:45.009Z,44.93
2023-04-26T17:55:09.593Z,45.01
2023-04-26T17:57:33.773Z,45.10
2023-04-26T18:00:09.593Z,45.09
2023-04-26T18:02:33.552Z,45.11
2023-04-26T18:05:00.419Z,44.67
2023-04-26T18:07:26.470Z,44.99
2023-04-26T18:09:50.148Z,45.01
2023-04-26T18:12:17.134Z,44.98
2023-04-26T18:14:52.108Z,45.18
2023-04-26T18:17:16.110Z,45.04
2023-04-26T18:19:39.762Z,45.15
2023-04-26T18:22:07.172Z,45.17
2023-04-26T18:24:30.874Z,45.23
2023-04-26T18:26:54.750Z,45.33
2023-04-26T18:29:21.024Z,45.65
2023-04-26T18:31:44.688Z,45.61
2023-04-26T18:34:10.124Z,45.63
2023-04-26T18:36:33.969Z,45.78
2023-04-26T18:38:58.625Z,45.84
2023-04-26T18:41:24.062Z,45.95
2023-04-26T18:43:47.798Z,46.08
2023-04-26T18:46:11.312Z,46.23
2023-04-26T18:48:35.446Z,46.18
2023-04-26T18:50:59.213Z,46.09
2023-04-26T18:53:23.216Z,46.04
2023-04-26T18:55:46.960Z,45.94
2023-04-26T18:58:10.838Z,45.96
2023-04-26T19:00:34.267Z,46.86
2023-04-26T19:03:00.194Z,46.83
2023-04-26T19:05:23.713Z,46.81
2023-04-26T19:07:47.120Z,46.98
2023-04-26T19:10:11.577Z,46.92
2023-04-26T19:12:35.199Z,46.87
2023-04-26T19:14:58.790Z,46.90
2023-04-26T19:17:22.565Z,46.94
2023-04-26T19:19:46.496Z,46.80
2023-04-26T19:22:09.901Z,47.03
2023-04-26T19:24:33.343Z,47.20
2023-04-26T19:26:57.212Z,47.23
2023-04-26T19:29:20.817Z,47.24
2023-04-26T19:31:44.784Z,47.52
2023-04-26T19:34:09.319Z,47.78
2023-04-26T19:36:35.642Z,47.82
2023-04-26T19:38:59.565Z,47.91
2023-04-26T19:41:23.833Z,48.14
2023-04-26T19:43:47.402Z,48.40
2023-04-26T19:46:14.780Z,48.70
2023-04-26T19:48:38.513Z,48.81
2023-04-26T19:51:02.040Z,48.74
2023-04-26T19:53:25.563Z,48.84
2023-04-26T19:55:49.838Z,49.05
2023-04-26T19:58:13.450Z,49.03
2023-04-26T20:00:38.069Z,49.22
2023-04-26T20:03:03.019Z,49.47
2023-04-26T20:05:27.193Z,49.62
2023-04-26T20:07:50.691Z,49.79
2023-04-26T20:10:15.206Z,49.96
2023-04-26T20:12:38.619Z,49.96
2023-04-26T20:15:02.169Z,50.08
2023-04-26T20:17:25.922Z,50.36
2023-04-26T20:19:49.511Z,50.45
2023-04-26T20:22:13.035Z,50.58
2023-04-26T20:24:36.733Z,50.78
2023-04-26T20:27:01.421Z,50.87
2023-04-26T20:29:27.959Z,51.01
2023-04-26T20:31:51.591Z,51.13
2023-04-26T20:34:15.181Z,51.18
2023-04-26T20:36:38.973Z,51.25
2023-04-26T20:39:02.712Z,51.34
2023-04-26T20:41:26.129Z,51.47
2023-04-26T20:43:49.612Z,51.89
2023-04-26T20:46:13.310Z,52.09
2023-04-26T20:48:36.783Z,52.14
2023-04-26T20:51:01.384Z,52.25
2023-04-26T20:53:26.316Z,52.51
2023-04-26T20:55:52.402Z,52.63
2023-04-26T20:58:16.187Z,52.74
2023-04-26T21:00:41.687Z,52.95
2023-04-26T21:03:05.474Z,53.05
2023-04-26T21:05:29.449Z,53.06
2023-04-26T21:07:54.626Z,53.18
2023-04-26T21:10:18.322Z,53.46
2023-04-26T21:12:41.878Z,53.51
2023-04-26T21:15:08.165Z,53.60
2023-04-26T21:17:31.762Z,53.65
2023-04-26T21:19:58.585Z,53.81
2023-04-26T21:22:22.561Z,53.96
2023-04-26T21:24:46.067Z,53.97
2023-04-26T21:27:10.181Z,54.16
2023-04-26T21:29:36.496Z,54.19
2023-04-26T21:31:59.975Z,54.50
2023-04-26T21:34:23.716Z,54.45
2023-04-26T21:36:47.385Z,54.69
2023-04-26T21:39:11.374Z,54.56
2023-04-26T21:41:38.800Z,54.80
2023-04-26T21:44:02.699Z,54.87
2023-04-26T21:46:37.782Z,55.03
2023-04-26T21:49:01.593Z,55.12
2023-04-26T21:51:25.377Z,55.24
2023-04-26T21:53:48.834Z,55.56
2023-04-26T21:56:14.325Z,55.73
2023-04-26T21:58:37.877Z,55.75
2023-04-26T22:01:09.351Z,55.73
2023-04-26T22:03:33.236Z,56.11
2023-04-26T22:05:57.045Z,56.07
2023-04-26T22:08:22.777Z,56.09
2023-04-26T22:10:46.634Z,56.39
2023-04-26T22:13:10.511Z,56.59
2023-04-26T22:15:37.191Z,56.69
2023-04-26T22:18:01.042Z,56.82
2023-04-26T22:20:25.260Z,57.08
2023-04-26T22:23:09.391Z,57.01
2023-04-26T22:25:34.773Z,57.12
2023-04-26T22:27:58.191Z,57.37
2023-04-26T22:30:25.546Z,57.64
2023-04-26T22:32:52.969Z,57.61
2023-04-26T22:35:16.443Z,57.63
2023-04-26T22:37:40.622Z,57.86
2023-04-26T22:40:07.473Z,58.08
2023-04-26T22:42:30.916Z,58.04
2023-04-26T22:44:54.480Z,58.14
2023-04-26T22:47:18.164Z,58.11
2023-04-26T22:49:41.640Z,58.25
2023-04-26T22:52:09.790Z,58.41
2023-04-26T22:54:40.766Z,58.35
2023-04-26T22:57:04.981Z,58.48
2023-04-26T22:59:29.303Z,58.75
2023-04-26T23:01:53.382Z,58.85
2023-04-26T23:04:19.472Z,58.91
2023-04-26T23:07:03.658Z,58.89
2023-04-26T23:09:29.834Z,59.15
2023-04-26T23:11:56.424Z,59.16
2023-04-26T23:14:23.677Z,59.25
2023-04-26T23:16:47.178Z,59.45
2023-04-26T23:19:10.782Z,59.66
2023-04-26T23:21:37.903Z,59.68
2023-04-26T23:24:01.449Z,59.74
2023-04-26T23:26:24.969Z,59.66
2023-04-26T23:28:51.734Z,59.84
2023-04-26T23:31:26.465Z,59.95
2023-04-26T23:33:49.919Z,60.08
2023-04-26T23:36:13.690Z,60.02
2023-04-26T23:38:37.155Z,60.31
2023-04-26T23:41:00.788Z,60.30
2023-04-26T23:43:25.006Z,60.37
2023-04-26T23:45:49.586Z,60.57
2023-04-26T23:48:13.598Z,60.59
2023-04-26T23:50:37.326Z,60.67
2023-04-26T23:53:00.808Z,61.00
2023-04-26T23:55:24.226Z,60.94
2023-04-26T23:57:48.045Z,61.17
